Time;durP1;ratioP1;P1;durP2;ratioP2;P2;SDS_P1;SDS_P2;PMS_P1;PMS_P2;Temp;Humidity;BMP_temperature;BMP_pressure;BME280_temperature;BME280_humidity;BME280_pressure;Samples;Min_cycle;Max_cycle;Signal;HPM_P1;HPM_P2
2023/12/09 00:01:19;;;;;;;961.23;885.07;;;6.40;99.90;;;;;;5007465;28;20097;-74
2023/12/09 00:03:45;;;;;;;1036.90;939.10;;;6.50;99.90;;;;;;4989461;28;20120;-73
2023/12/09 00:06:11;;;;;;;967.13;888.37;;;6.50;99.90;;;;;;5009171;28;20727;-73
2023/12/09 00:08:37;;;;;;;1052.47;952.53;;;6.50;99.90;;;;;;5009856;28;20052;-73
2023/12/09 00:11:03;;;;;;;989.03;903.25;;;6.50;99.90;;;;;;4994244;28;20536;-73
2023/12/09 00:13:30;;;;;;;985.30;900.30;;;6.50;99.90;;;;;;5010723;28;20050;-73
2023/12/09 00:15:56;;;;;;;980.90;896.28;;;6.50;99.90;;;;;;4994715;28;20383;-73
2023/12/09 00:18:21;;;;;;;1012.47;923.47;;;6.50;99.90;;;;;;5009735;28;20049;-73
2023/12/09 00:20:47;;;;;;;1067.43;963.77;;;6.50;99.90;;;;;;4991352;28;20042;-73
2023/12/09 00:23:13;;;;;;;981.80;897.53;;;6.50;99.90;;;;;;4996285;28;20041;-73
2023/12/09 00:25:39;;;;;;;1013.10;925.60;;;6.50;99.90;;;;;;5008484;28;20038;-73
2023/12/09 00:28:05;;;;;;;1024.68;930.40;;;6.40;99.90;;;;;;5007388;28;20050;-73
2023/12/09 00:30:30;;;;;;;986.50;905.70;;;6.50;99.90;;;;;;5011204;28;20594;-73
2023/12/09 00:32:56;;;;;;;1015.57;925.73;;;6.40;99.90;;;;;;5010052;28;20072;-73
2023/12/09 00:35:22;;;;;;;989.63;906.07;;;6.50;99.90;;;;;;5013355;28;20069;-73
2023/12/09 00:37:47;;;;;;;1003.00;920.30;;;6.40;99.90;;;;;;5009248;28;20045;-73
2023/12/09 00:40:13;;;;;;;1021.27;924.10;;;6.40;99.90;;;;;;5009157;28;20124;-73
2023/12/09 00:42:39;;;;;;;1021.53;927.43;;;6.40;99.90;;;;;;5009328;28;20053;-74
2023/12/09 00:45:08;;;;;;;994.63;910.47;;;6.40;99.90;;;;;;5009750;28;20046;-73
2023/12/09 00:47:33;;;;;;;961.53;884.60;;;6.30;99.90;;;;;;5008839;28;20042;-73
2023/12/09 00:50:00;;;;;;;996.33;908.27;;;6.30;99.90;;;;;;4994673;28;20096;-73
2023/12/09 00:52:25;;;;;;;976.08;896.97;;;6.20;99.90;;;;;;4993070;28;20037;-73
2023/12/09 00:54:51;;;;;;;1079.80;962.50;;;6.10;99.90;;;;;;5007934;28;20483;-73
2023/12/09 00:57:16;;;;;;;954.57;880.20;;;6.00;99.90;;;;;;5008120;28;20532;-73
2023/12/09 00:59:42;;;;;;;950.50;876.60;;;5.90;99.90;;;;;;5007137;28;20052;-73
2023/12/09 01:02:08;;;;;;;918.57;845.80;;;5.80;99.90;;;;;;5017634;28;20393;-73
2023/12/09 01:04:34;;;;;;;929.60;857.63;;;5.70;99.90;;;;;;5019183;28;20037;-73
2023/12/09 01:06:59;;;;;;;925.60;855.50;;;5.60;99.90;;;;;;4994267;28;20049;-73
2023/12/09 01:09:25;;;;;;;916.50;845.57;;;5.50;99.90;;;;;;5005437;28;20045;-73
2023/12/09 01:11:51;;;;;;;886.58;820.88;;;5.50;99.90;;;;;;5009000;28;20068;-73
2023/12/09 01:14:17;;;;;;;892.17;825.57;;;5.40;99.90;;;;;;5021412;28;20030;-73
2023/12/09 01:16:42;;;;;;;899.60;831.37;;;5.40;99.90;;;;;;5012229;28;20120;-73
2023/12/09 01:19:08;;;;;;;945.93;874.00;;;5.30;99.90;;;;;;4995393;28;20072;-73
2023/12/09 01:21:34;;;;;;;930.83;860.07;;;5.30;99.90;;;;;;5010944;28;20482;-73
2023/12/09 01:24:00;;;;;;;895.00;829.50;;;5.30;99.90;;;;;;5004672;28;20050;-73
2023/12/09 01:26:26;;;;;;;921.83;849.38;;;5.20;99.90;;;;;;5010122;28;20052;-73
2023/12/09 01:28:51;;;;;;;943.57;866.23;;;5.20;99.90;;;;;;4995343;28;20050;-74
2023/12/09 01:31:17;;;;;;;933.37;850.50;;;5.20;99.90;;;;;;4990726;28;20410;-73
2023/12/09 01:33:43;;;;;;;918.57;848.13;;;5.30;99.90;;;;;;5011592;28;20046;-72
2023/12/09 01:36:08;;;;;;;870.70;807.77;;;5.20;99.90;;;;;;4992330;28;20084;-73
2023/12/09 01:38:35;;;;;;;947.10;870.60;;;5.30;99.90;;;;;;4995771;28;20038;-73
2023/12/09 01:41:00;;;;;;;833.85;775.03;;;5.30;99.90;;;;;;5010802;28;20052;-73
2023/12/09 01:43:26;;;;;;;959.90;871.23;;;5.40;99.90;;;;;;5007645;28;20383;-73
2023/12/09 01:45:55;;;;;;;947.53;875.97;;;5.40;99.90;;;;;;5014963;28;20037;-73
2023/12/09 01:48:22;;;;;;;888.60;823.53;;;5.50;99.90;;;;;;5011274;28;20034;-73
2023/12/09 01:50:48;;;;;;;919.72;849.08;;;5.60;99.90;;;;;;5010558;28;20042;-73
2023/12/09 01:53:14;;;;;;;934.92;864.42;;;5.70;99.90;;;;;;5004648;28;20411;-73
2023/12/09 01:55:41;;;;;;;921.63;849.35;;;5.70;99.90;;;;;;5016487;28;20049;-73
2023/12/09 01:58:08;;;;;;;969.60;884.95;;;5.80;99.90;;;;;;5008227;28;20121;-73
2023/12/09 02:00:34;;;;;;;958.03;880.53;;;5.90;99.90;;;;;;5010658;28;20077;-73
2023/12/09 02:03:00;;;;;;;948.93;874.20;;;5.90;99.90;;;;;;5010156;28;20100;-73
2023/12/09 02:05:25;;;;;;;983.97;903.47;;;6.00;99.90;;;;;;4993012;28;20498;-73
2023/12/09 02:07:51;;;;;;;910.00;844.50;;;6.00;99.90;;;;;;4993925;28;20038;-72
2023/12/09 02:10:17;;;;;;;975.07;894.83;;;6.00;99.90;;;;;;5007214;28;20490;-73
2023/12/09 02:13:18;;;;;;;977.03;897.00;;;6.10;99.90;;;;;;4991121;28;20033;-72
2023/12/09 02:15:44;;;;;;;1025.30;930.65;;;6.20;99.90;;;;;;4984555;28;20137;-73
2023/12/09 02:18:12;;;;;;;995.97;913.80;;;6.20;99.90;;;;;;4993960;28;20121;-73
2023/12/09 02:20:37;;;;;;;962.92;883.25;;;6.30;99.90;;;;;;4993943;28;20187;-73
2023/12/09 02:23:05;;;;;;;1014.40;922.00;;;6.30;99.90;;;;;;5010290;28;20128;-73
2023/12/09 02:25:31;;;;;;;1009.50;920.47;;;6.30;99.90;;;;;;4986624;28;20064;-73
2023/12/09 02:28:00;;;;;;;1016.50;932.70;;;6.40;99.90;;;;;;5011162;28;20187;-73
2023/12/09 02:30:31;;;;;;;977.78;893.47;;;6.30;99.90;;;;;;4993849;28;20137;-73
2023/12/09 02:32:58;;;;;;;975.38;892.30;;;6.30;99.90;;;;;;5012516;28;20403;-72
2023/12/09 02:35:26;;;;;;;965.17;886.38;;;6.20;99.90;;;;;;5006928;28;20049;-73
2023/12/09 02:37:53;;;;;;;931.00;859.13;;;6.20;99.90;;;;;;5009935;28;20042;-73
2023/12/09 02:40:19;;;;;;;1011.30;924.38;;;6.10;99.90;;;;;;5010039;28;20108;-73
2023/12/09 02:42:46;;;;;;;933.63;862.85;;;6.10;99.90;;;;;;5012541;28;20041;-73
2023/12/09 02:45:12;;;;;;;932.13;861.33;;;6.20;99.90;;;;;;4993633;28;20127;-73
2023/12/09 02:47:38;;;;;;;941.47;867.73;;;6.10;99.90;;;;;;5005421;28;20413;-73
2023/12/09 02:50:04;;;;;;;1001.93;916.97;;;6.10;99.90;;;;;;4993951;28;20388;-73
2023/12/09 02:52:30;;;;;;;975.42;892.60;;;6.00;99.90;;;;;;5009273;28;20103;-72
2023/12/09 02:54:56;;;;;;;957.57;880.80;;;6.00;99.90;;;;;;4993699;28;20468;-73
2023/12/09 02:57:21;;;;;;;989.07;908.03;;;5.90;99.90;;;;;;5007666;28;20045;-73
2023/12/09 02:59:47;;;;;;;928.60;856.73;;;5.90;99.90;;;;;;5006401;28;20120;-73
2023/12/09 03:02:13;;;;;;;934.40;862.20;;;5.80;99.90;;;;;;5009473;28;20037;-73
2023/12/09 03:04:38;;;;;;;960.90;881.43;;;5.80;99.90;;;;;;5014315;28;20042;-73
2023/12/09 03:07:04;;;;;;;922.20;851.27;;;5.70;99.90;;;;;;4993443;28;20042;-73
2023/12/09 03:09:30;;;;;;;891.97;824.87;;;5.70;99.90;;;;;;4999736;28;20485;-72
2023/12/09 03:11:55;;;;;;;958.97;876.67;;;5.70;99.90;;;;;;4990539;28;20044;-73
2023/12/09 03:14:22;;;;;;;931.37;863.30;;;5.70;99.90;;;;;;5009763;28;20089;-73
2023/12/09 03:16:48;;;;;;;991.60;897.10;;;5.80;99.90;;;;;;5004662;28;20466;-73
2023/12/09 03:19:13;;;;;;;938.47;865.97;;;5.80;99.90;;;;;;5013351;28;20041;-73
2023/12/09 03:21:39;;;;;;;912.20;842.47;;;5.80;99.90;;;;;;5006797;28;20054;-73
2023/12/09 03:24:05;;;;;;;948.53;877.73;;;5.80;99.90;;;;;;5008591;28;20524;-73
2023/12/09 03:26:31;;;;;;;942.17;869.30;;;5.80;99.90;;;;;;5011430;28;20120;-72
2023/12/09 03:28:56;;;;;;;916.57;848.70;;;5.90;99.90;;;;;;4995753;28;20065;-72
2023/12/09 03:31:22;;;;;;;925.43;854.27;;;5.90;99.90;;;;;;5010052;28;20046;-72
2023/12/09 03:33:48;;;;;;;1282.47;926.23;;;5.90;99.90;;;;;;5009632;28;20119;-73
2023/12/09 03:36:14;;;;;;;942.10;867.40;;;5.80;99.90;;;;;;5006018;28;20030;-73
2023/12/09 03:38:40;;;;;;;1054.03;941.37;;;5.80;99.90;;;;;;5007096;28;20152;-73
2023/12/09 03:41:07;;;;;;;964.95;891.00;;;5.80;99.90;;;;;;5024016;28;20034;-73
2023/12/09 03:43:33;;;;;;;976.55;900.95;;;5.80;99.90;;;;;;5009679;28;20044;-73
2023/12/09 03:45:59;;;;;;;956.97;881.35;;;5.80;99.90;;;;;;5007839;28;20085;-73
2023/12/09 03:48:29;;;;;;;1047.47;941.97;;;5.80;99.90;;;;;;5003439;28;20046;-73
2023/12/09 03:50:55;;;;;;;1004.80;920.67;;;5.80;99.90;;;;;;5003805;28;20038;-73
2023/12/09 03:53:20;;;;;;;977.13;901.28;;;5.80;99.90;;;;;;5013517;28;20130;-73
2023/12/09 03:55:46;;;;;;;970.90;890.10;;;5.80;99.90;;;;;;5011236;28;20124;-73
2023/12/09 03:58:12;;;;;;;944.87;870.57;;;5.80;99.90;;;;;;5012965;28;20048;-73
2023/12/09 04:00:39;;;;;;;940.90;865.63;;;5.80;99.90;;;;;;5011822;28;20169;-73
2023/12/09 04:03:05;;;;;;;908.78;841.75;;;5.80;99.90;;;;;;4995773;28;20049;-73
2023/12/09 04:05:31;;;;;;;972.65;895.22;;;5.80;99.90;;;;;;5012501;28;20410;-73
2023/12/09 04:07:57;;;;;;;1004.10;921.20;;;5.80;99.90;;;;;;4994058;28;20038;-72
2023/12/09 04:10:22;;;;;;;956.27;880.70;;;5.70;99.90;;;;;;5013596;28;20042;-73
2023/12/09 04:12:48;;;;;;;974.37;895.80;;;5.70;99.90;;;;;;5009450;28;20120;-73
2023/12/09 04:15:14;;;;;;;957.75;880.45;;;5.80;99.90;;;;;;4996880;28;20506;-73
2023/12/09 04:17:40;;;;;;;950.97;876.70;;;5.80;99.90;;;;;;5013132;28;20046;-72
2023/12/09 04:20:08;;;;;;;959.28;884.35;;;5.80;99.90;;;;;;5008032;28;20110;-72
2023/12/09 04:22:37;;;;;;;972.35;895.30;;;5.80;99.90;;;;;;5011760;28;20042;-73
2023/12/09 04:25:04;;;;;;;1015.33;928.72;;;5.80;99.90;;;;;;4995821;28;20052;-73
2023/12/09 04:27:34;;;;;;;957.85;885.05;;;5.80;99.90;;;;;;4991052;28;20054;-73
2023/12/09 04:30:00;;;;;;;955.95;878.50;;;5.80;99.90;;;;;;4994403;28;20468;-73
2023/12/09 04:32:30;;;;;;;955.15;879.75;;;5.80;99.90;;;;;;4994768;28;20037;-73
2023/12/09 04:34:59;;;;;;;967.05;890.15;;;5.80;99.90;;;;;;5010884;28;20116;-73
2023/12/09 04:37:24;;;;;;;942.20;867.03;;;5.80;99.90;;;;;;5026419;28;20046;-73
2023/12/09 04:39:51;;;;;;;940.30;867.87;;;5.80;99.90;;;;;;4988229;28;20038;-73
2023/12/09 04:42:18;;;;;;;968.25;888.80;;;5.80;99.90;;;;;;5009797;28;20030;-73
2023/12/09 04:44:44;;;;;;;937.17;863.70;;;5.80;99.90;;;;;;5007211;28;20037;-73
2023/12/09 04:47:10;;;;;;;958.80;883.93;;;5.80;99.90;;;;;;5005423;28;20042;-73
2023/12/09 04:49:35;;;;;;;972.27;890.67;;;5.80;99.90;;;;;;5010961;28;20398;-73
2023/12/09 04:52:01;;;;;;;930.93;860.53;;;5.80;99.90;;;;;;5011287;28;20312;-73
2023/12/09 04:54:27;;;;;;;905.83;838.00;;;5.70;99.90;;;;;;5007406;28;20128;-73
2023/12/09 04:56:53;;;;;;;926.37;855.97;;;5.60;99.90;;;;;;4994131;28;20092;-73
2023/12/09 04:59:19;;;;;;;895.78;828.83;;;5.60;99.90;;;;;;5007380;28;20040;-73
2023/12/09 05:01:45;;;;;;;945.80;871.67;;;5.50;99.90;;;;;;5011261;28;20120;-73
2023/12/09 05:04:11;;;;;;;915.87;846.33;;;5.50;99.90;;;;;;5011473;28;20053;-73
2023/12/09 05:06:36;;;;;;;908.23;839.07;;;5.40;99.90;;;;;;5008353;28;20051;-73
2023/12/09 05:09:02;;;;;;;928.70;856.00;;;5.40;99.90;;;;;;5009451;28;20116;-73
2023/12/09 05:11:28;;;;;;;877.03;812.20;;;5.30;99.90;;;;;;5005406;28;20046;-73
2023/12/09 05:13:54;;;;;;;901.30;834.67;;;5.30;99.90;;;;;;4994629;28;20398;-73
2023/12/09 05:16:20;;;;;;;895.10;827.10;;;5.30;99.90;;;;;;4994222;28;20132;-73
2023/12/09 05:18:45;;;;;;;906.97;838.40;;;5.20;99.90;;;;;;5010614;28;20046;-73
2023/12/09 05:21:12;;;;;;;954.83;878.57;;;5.20;99.90;;;;;;5011020;28;20502;-73
2023/12/09 05:23:38;;;;;;;943.63;869.25;;;5.20;99.90;;;;;;5008077;28;20073;-73
2023/12/09 05:26:04;;;;;;;858.07;798.87;;;5.10;99.90;;;;;;4993555;28;20128;-73
2023/12/09 05:28:30;;;;;;;892.57;828.10;;;5.10;99.90;;;;;;4951279;28;1110639;-73
2023/12/09 05:30:57;;;;;;;889.63;824.28;;;5.10;99.90;;;;;;5011488;28;20050;-73
2023/12/09 05:33:22;;;;;;;869.08;806.72;;;5.00;99.90;;;;;;4995234;28;20038;-73
2023/12/09 05:35:48;;;;;;;863.00;802.80;;;5.00;99.90;;;;;;5010389;28;20038;-73
2023/12/09 05:38:14;;;;;;;849.13;787.73;;;5.00;99.90;;;;;;5009960;28;20061;-73
2023/12/09 05:40:39;;;;;;;951.50;879.60;;;5.10;99.90;;;;;;5008379;28;20046;-73
2023/12/09 05:43:05;;;;;;;861.23;799.50;;;5.10;99.90;;;;;;5012134;28;20048;-73
2023/12/09 05:45:31;;;;;;;923.83;854.83;;;5.00;99.90;;;;;;4995012;28;20037;-73
2023/12/09 05:47:57;;;;;;;884.63;820.97;;;5.00;99.90;;;;;;4995145;28;20304;-73
2023/12/09 05:50:23;;;;;;;887.25;822.92;;;5.10;99.90;;;;;;5007885;28;20034;-73
2023/12/09 05:52:49;;;;;;;891.20;823.93;;;5.10;99.90;;;;;;5010806;28;20099;-73
2023/12/09 05:55:16;;;;;;;870.37;807.63;;;5.10;99.90;;;;;;5009000;28;20046;-73
2023/12/09 05:57:42;;;;;;;876.47;812.72;;;5.10;99.90;;;;;;4995067;28;20042;-73
2023/12/09 06:00:10;;;;;;;866.45;803.78;;;5.10;99.90;;;;;;4990867;28;20439;-73
2023/12/09 06:02:35;;;;;;;894.75;829.90;;;5.00;99.90;;;;;;5009861;28;20184;-73
2023/12/09 06:05:02;;;;;;;866.30;804.23;;;5.00;99.90;;;;;;5006128;28;20493;-73
2023/12/09 06:07:28;;;;;;;889.80;826.50;;;5.00;99.90;;;;;;5008497;28;20387;-73
2023/12/09 06:09:54;;;;;;;869.47;807.50;;;4.90;99.90;;;;;;5006673;28;20044;-73
2023/12/09 06:12:20;;;;;;;890.10;823.92;;;4.80;99.90;;;;;;4981258;28;20050;-73
2023/12/09 06:14:46;;;;;;;860.90;798.63;;;4.80;99.90;;;;;;4994645;28;20037;-73
2023/12/09 06:17:11;;;;;;;877.37;813.57;;;4.70;99.90;;;;;;5011264;28;20402;-72
2023/12/09 06:19:37;;;;;;;858.30;797.30;;;4.70;99.90;;;;;;4987510;28;20046;-73
2023/12/09 06:22:03;;;;;;;883.75;818.38;;;4.60;99.90;;;;;;4992722;28;20042;-73
2023/12/09 06:24:29;;;;;;;864.07;802.20;;;4.60;99.90;;;;;;5010830;28;20045;-73
2023/12/09 06:26:55;;;;;;;899.27;830.83;;;4.70;99.90;;;;;;4994559;28;20082;-73
2023/12/09 06:29:20;;;;;;;815.10;757.53;;;4.70;99.90;;;;;;5008392;28;20173;-73
2023/12/09 06:31:46;;;;;;;833.23;773.80;;;4.70;99.90;;;;;;4988935;28;20046;-73
2023/12/09 06:34:11;;;;;;;868.17;802.10;;;4.70;99.90;;;;;;5008162;28;20034;-73
2023/12/09 06:36:37;;;;;;;930.20;855.23;;;4.70;99.90;;;;;;5010311;28;20038;-73
2023/12/09 06:39:03;;;;;;;883.70;816.93;;;4.70;99.90;;;;;;5009613;28;20041;-73
2023/12/09 06:41:29;;;;;;;917.70;849.17;;;4.80;99.90;;;;;;5013021;28;20052;-73
2023/12/09 06:43:54;;;;;;;925.73;852.33;;;4.80;99.90;;;;;;5007966;28;20038;-73
2023/12/09 06:46:20;;;;;;;897.10;831.10;;;4.90;99.90;;;;;;5009044;28;20049;-73
2023/12/09 06:48:46;;;;;;;908.10;841.40;;;4.90;99.90;;;;;;5005396;28;20049;-72
2023/12/09 06:51:15;;;;;;;920.97;852.43;;;5.00;99.90;;;;;;5002540;28;20121;-73
2023/12/09 06:53:42;;;;;;;899.83;832.33;;;5.00;99.90;;;;;;5010153;28;20030;-73
2023/12/09 06:56:17;;;;;;;915.00;844.40;;;5.10;99.90;;;;;;5009163;28;20033;-73
2023/12/09 06:58:42;;;;;;;887.40;825.20;;;5.10;99.90;;;;;;4994569;28;20042;-73
2023/12/09 07:01:08;;;;;;;871.23;808.93;;;5.10;99.90;;;;;;5009709;28;20521;-73
2023/12/09 07:03:37;;;;;;;884.17;818.90;;;5.10;99.90;;;;;;5025332;28;20046;-73
2023/12/09 07:06:04;;;;;;;927.20;855.47;;;5.20;99.90;;;;;;5009232;28;20137;-72
2023/12/09 07:08:30;;;;;;;930.90;856.90;;;5.20;99.90;;;;;;5010278;28;20061;-73
2023/12/09 07:10:59;;;;;;;926.00;854.60;;;5.20;99.90;;;;;;4993776;28;20486;-73
2023/12/09 07:13:25;;;;;;;964.17;887.38;;;5.30;99.90;;;;;;5010214;28;20041;-73
2023/12/09 07:15:50;;;;;;;943.43;869.13;;;5.30;99.90;;;;;;5009075;28;20574;-73
2023/12/09 07:18:16;;;;;;;941.13;865.33;;;5.40;99.90;;;;;;5009983;28;20045;-73
2023/12/09 07:20:42;;;;;;;947.90;873.73;;;5.40;99.90;;;;;;5009074;28;20375;-73
2023/12/09 07:23:07;;;;;;;948.80;873.20;;;5.40;99.90;;;;;;5009864;28;20049;-73
2023/12/09 07:25:33;;;;;;;1104.57;989.03;;;5.50;99.90;;;;;;4997578;28;20081;-73
2023/12/09 07:27:59;;;;;;;928.57;857.97;;;5.50;99.90;;;;;;5012163;28;20062;-73
2023/12/09 07:30:24;;;;;;;1014.40;922.17;;;5.50;99.90;;;;;;5013266;28;20041;-73
2023/12/09 07:32:50;;;;;;;942.07;867.83;;;5.50;99.90;;;;;;5015252;28;20498;-73
2023/12/09 07:35:17;;;;;;;939.70;868.23;;;5.60;99.90;;;;;;5015686;28;20390;-72
2023/12/09 07:37:43;;;;;;;931.22;858.35;;;5.60;99.90;;;;;;4993957;28;20114;-73
2023/12/09 07:40:11;;;;;;;1047.65;949.78;;;5.60;99.90;;;;;;4991779;28;20062;-73
2023/12/09 07:42:38;;;;;;;970.75;893.30;;;5.60;99.90;;;;;;4991788;28;20100;-72
2023/12/09 07:45:04;;;;;;;941.28;869.97;;;5.70;99.90;;;;;;5000109;28;20065;-73
2023/12/09 07:47:30;;;;;;;938.17;865.97;;;5.70;99.90;;;;;;5003717;28;20077;-73
2023/12/09 07:49:56;;;;;;;930.17;858.43;;;5.70;99.90;;;;;;5008617;28;20069;-72
2023/12/09 07:52:21;;;;;;;925.80;854.90;;;5.70;99.90;;;;;;4994293;28;20041;-72
2023/12/09 07:54:47;;;;;;;989.10;901.33;;;5.80;99.90;;;;;;5011593;28;20040;-73
2023/12/09 07:57:14;;;;;;;917.40;846.67;;;5.80;99.90;;;;;;4992092;28;20048;-73
2023/12/09 07:59:40;;;;;;;945.63;871.05;;;5.80;99.90;;;;;;4997119;28;20185;-73
2023/12/09 08:02:05;;;;;;;927.93;857.13;;;5.80;99.90;;;;;;5013382;28;20041;-73
2023/12/09 08:04:31;;;;;;;879.83;817.33;;;5.80;99.90;;;;;;5012596;28;20046;-73
2023/12/09 08:06:57;;;;;;;930.10;858.40;;;5.80;99.90;;;;;;5008969;28;20034;-73
2023/12/09 08:09:22;;;;;;;946.27;872.00;;;5.90;99.90;;;;;;5010211;28;20034;-72
2023/12/09 08:11:48;;;;;;;936.53;863.23;;;5.80;99.90;;;;;;5013157;28;20379;-73
2023/12/09 08:14:14;;;;;;;1443.43;942.57;;;5.90;99.90;;;;;;5011795;28;20042;-73
2023/12/09 08:16:39;;;;;;;922.47;854.20;;;5.90;99.90;;;;;;5013051;28;20053;-73
2023/12/09 08:19:06;;;;;;;915.22;848.03;;;5.90;99.90;;;;;;5010627;28;20061;-73
2023/12/09 08:21:36;;;;;;;916.30;849.93;;;5.90;99.90;;;;;;4995937;28;20037;-72
2023/12/09 08:24:02;;;;;;;956.10;883.88;;;5.90;99.90;;;;;;4994614;28;20034;-73
2023/12/09 08:26:28;;;;;;;943.75;866.78;;;5.90;99.90;;;;;;5012607;28;20164;-73
2023/12/09 08:28:55;;;;;;;902.10;836.03;;;5.90;99.90;;;;;;5012331;28;20156;-73
2023/12/09 08:31:21;;;;;;;968.17;895.33;;;5.90;99.90;;;;;;5012616;28;20289;-73
2023/12/09 08:33:47;;;;;;;928.97;859.27;;;5.90;99.90;;;;;;4992902;28;20498;-73
2023/12/09 08:36:12;;;;;;;906.63;840.43;;;6.00;99.90;;;;;;5012315;28;20065;-73
2023/12/09 08:38:38;;;;;;;923.47;853.70;;;6.00;99.90;;;;;;4996463;28;20038;-73
2023/12/09 08:41:04;;;;;;;958.83;886.10;;;6.00;99.90;;;;;;4994928;28;20395;-73
2023/12/09 08:43:30;;;;;;;931.10;859.57;;;6.00;99.90;;;;;;5010099;28;20061;-73
2023/12/09 08:45:55;;;;;;;963.07;887.30;;;6.00;99.90;;;;;;5022527;28;20042;-73
2023/12/09 08:48:21;;;;;;;944.90;870.07;;;6.00;99.90;;;;;;5004505;28;20041;-73
2023/12/09 08:50:47;;;;;;;949.13;876.90;;;6.10;99.90;;;;;;4991146;28;20453;-73
2023/12/09 08:53:13;;;;;;;1000.30;920.33;;;6.10;99.90;;;;;;5008561;28;20044;-73
2023/12/09 08:55:38;;;;;;;880.30;820.60;;;6.10;99.90;;;;;;5011957;28;20105;-73
2023/12/09 08:58:04;;;;;;;951.87;877.40;;;6.10;99.90;;;;;;5012185;28;20045;-73
2023/12/09 09:00:30;;;;;;;931.97;859.73;;;6.10;99.90;;;;;;5010556;28;20049;-73
2023/12/09 09:02:56;;;;;;;947.07;874.43;;;6.10;99.90;;;;;;5004596;28;20050;-73
2023/12/09 09:05:22;;;;;;;964.90;889.47;;;6.10;99.90;;;;;;4992384;28;20046;-73
2023/12/09 09:07:48;;;;;;;1038.13;947.35;;;6.20;99.90;;;;;;5009789;28;20065;-73
2023/12/09 09:10:14;;;;;;;939.37;867.87;;;6.20;99.90;;;;;;5008848;28;20077;-73
2023/12/09 09:12:40;;;;;;;1023.47;932.50;;;6.20;99.90;;;;;;5006788;28;20037;-73
2023/12/09 09:15:07;;;;;;;958.10;882.33;;;6.20;99.90;;;;;;5012875;28;20068;-73
2023/12/09 09:17:34;;;;;;;977.83;900.65;;;6.30;99.90;;;;;;4994648;28;20441;-72
2023/12/09 09:20:00;;;;;;;963.45;890.38;;;6.30;99.90;;;;;;5011688;28;20410;-72
2023/12/09 09:22:26;;;;;;;975.45;898.05;;;6.30;99.90;;;;;;4993426;28;20045;-73
2023/12/09 09:24:52;;;;;;;1048.87;953.70;;;6.30;99.90;;;;;;5008592;28;20042;-73
2023/12/09 09:27:18;;;;;;;957.47;884.60;;;6.30;99.90;;;;;;5009863;28;20080;-73
2023/12/09 09:29:45;;;;;;;1002.00;915.88;;;6.30;99.90;;;;;;5011250;28;20125;-72
2023/12/09 09:32:11;;;;;;;944.10;874.38;;;6.30;99.90;;;;;;5010431;28;20104;-73
2023/12/09 09:34:36;;;;;;;962.13;886.53;;;6.30;99.90;;;;;;4985788;28;20156;-73
2023/12/09 09:37:02;;;;;;;960.57;885.93;;;6.30;99.90;;;;;;4994943;28;20048;-73
2023/12/09 09:39:28;;;;;;;929.23;859.43;;;6.30;99.90;;;;;;5009935;28;20471;-73
2023/12/09 09:42:18;;;;;;;962.07;886.13;;;6.30;99.90;;;;;;5010445;28;20103;-73
2023/12/09 09:44:53;;;;;;;959.45;886.03;;;6.30;99.90;;;;;;4993399;28;20037;-73
2023/12/09 09:47:21;;;;;;;1084.13;951.17;;;6.30;99.90;;;;;;5008428;28;20395;-73
2023/12/09 09:49:48;;;;;;;975.75;901.78;;;6.30;99.90;;;;;;4993604;28;20034;-73
2023/12/09 09:52:17;;;;;;;933.05;860.55;;;6.30;99.90;;;;;;4993024;28;21028;-73
2023/12/09 09:54:45;;;;;;;984.25;905.63;;;6.30;99.90;;;;;;5021502;28;20394;-73
2023/12/09 09:57:11;;;;;;;942.25;871.50;;;6.30;99.90;;;;;;5004916;28;20042;-73
2023/12/09 09:59:38;;;;;;;1013.60;922.13;;;6.40;99.90;;;;;;5008885;28;20048;-73
2023/12/09 10:02:06;;;;;;;959.45;883.88;;;6.40;99.90;;;;;;4988377;28;20064;-73
2023/12/09 10:04:32;;;;;;;987.30;906.90;;;6.40;99.90;;;;;;5008327;28;20049;-73
2023/12/09 10:06:58;;;;;;;880.00;818.30;;;6.40;99.90;;;;;;5008446;28;20056;-73
2023/12/09 10:09:24;;;;;;;956.03;883.42;;;6.40;99.90;;;;;;5011266;28;20332;-73
2023/12/09 10:11:49;;;;;;;967.93;895.40;;;6.40;99.90;;;;;;5009773;28;20073;-73
2023/12/09 10:14:16;;;;;;;1013.77;929.43;;;6.40;99.90;;;;;;5008737;28;20037;-73
2023/12/09 10:16:42;;;;;;;957.08;884.80;;;6.50;99.90;;;;;;5010025;28;20116;-73
2023/12/09 10:19:11;;;;;;;957.15;885.20;;;6.50;99.90;;;;;;4992556;28;20092;-73
2023/12/09 10:21:37;;;;;;;1063.30;960.92;;;6.50;99.90;;;;;;5008520;28;20053;-73
2023/12/09 10:24:04;;;;;;;961.03;888.33;;;6.60;99.90;;;;;;5006900;28;20039;-73
2023/12/09 10:26:29;;;;;;;974.80;896.22;;;6.60;99.90;;;;;;5009586;28;20034;-73
2023/12/09 10:28:56;;;;;;;963.60;890.20;;;6.60;99.90;;;;;;4986761;28;20057;-73
2023/12/09 10:31:22;;;;;;;1059.15;954.83;;;6.60;99.90;;;;;;4986528;28;20044;-72
2023/12/09 10:33:49;;;;;;;987.28;911.13;;;6.70;99.90;;;;;;4992857;28;20040;-73
2023/12/09 10:36:15;;;;;;;969.00;894.28;;;6.70;99.90;;;;;;4993804;28;21254;-73
2023/12/09 10:38:42;;;;;;;960.55;885.42;;;6.80;99.90;;;;;;5015357;28;20071;-73
2023/12/09 10:41:11;;;;;;;972.95;898.17;;;6.80;99.90;;;;;;4995312;28;20077;-73
2023/12/09 10:43:37;;;;;;;973.40;898.22;;;6.80;99.90;;;;;;5008437;28;20398;-73
2023/12/09 10:46:03;;;;;;;955.25;879.50;;;6.80;99.90;;;;;;4992052;28;20566;-73
2023/12/09 10:48:30;;;;;;;970.42;898.97;;;6.90;99.90;;;;;;4992834;28;20505;-73
2023/12/09 10:50:55;;;;;;;976.78;902.70;;;6.90;99.90;;;;;;4999546;28;20084;-73
2023/12/09 10:53:21;;;;;;;959.67;885.57;;;6.90;99.90;;;;;;5008584;28;20081;-73
2023/12/09 10:55:48;;;;;;;927.50;860.40;;;6.90;99.90;;;;;;5010081;28;20034;-73
2023/12/09 10:58:15;;;;;;;1002.72;913.30;;;6.90;99.90;;;;;;5012295;28;20125;-73
2023/12/09 11:00:41;;;;;;;913.88;848.88;;;6.90;99.90;;;;;;5007587;28;20118;-73
2023/12/09 11:03:08;;;;;;;966.78;892.90;;;6.80;99.90;;;;;;5009959;28;20037;-73
2023/12/09 11:05:44;;;;;;;996.95;920.83;;;6.80;99.90;;;;;;5010177;28;20045;-73
2023/12/09 11:08:12;;;;;;;904.05;840.75;;;6.80;99.90;;;;;;5005633;28;20042;-73
2023/12/09 11:10:38;;;;;;;973.10;897.28;;;6.80;99.90;;;;;;5009591;28;20089;-71
2023/12/09 11:13:04;;;;;;;936.70;865.92;;;6.80;99.90;;;;;;5010291;28;20038;-73
2023/12/09 11:15:32;;;;;;;961.27;887.97;;;6.90;99.90;;;;;;5010833;28;20515;-74
2023/12/09 11:18:09;;;;;;;970.85;897.33;;;6.90;99.90;;;;;;5010249;28;20120;-73
2023/12/09 11:20:40;;;;;;;924.35;858.20;;;6.90;99.90;;;;;;5009111;28;20499;-72
2023/12/09 11:23:12;;;;;;;1119.97;960.30;;;6.80;99.90;;;;;;4994146;28;20117;-74
2023/12/09 11:25:43;;;;;;;978.47;901.95;;;6.80;99.90;;;;;;5009385;28;20057;-72
2023/12/09 11:28:14;;;;;;;990.28;910.35;;;6.80;99.90;;;;;;5006871;28;20057;-74
2023/12/09 11:30:46;;;;;;;1004.38;922.33;;;6.80;99.90;;;;;;4992832;28;20062;-74
2023/12/09 11:33:12;;;;;;;969.70;896.08;;;6.80;99.90;;;;;;5009356;28;20033;-74
2023/12/09 11:35:38;;;;;;;990.10;913.13;;;6.80;99.90;;;;;;4993669;28;20038;-73
2023/12/09 11:38:07;;;;;;;1039.60;950.17;;;6.70;99.90;;;;;;5010328;28;20088;-74
2023/12/09 11:40:33;;;;;;;997.05;913.25;;;6.70;99.90;;;;;;4994342;28;20045;-74
2023/12/09 11:43:03;;;;;;;958.22;884.90;;;6.70;99.90;;;;;;5011998;28;20136;-74
2023/12/09 11:45:29;;;;;;;971.33;897.10;;;6.80;99.90;;;;;;4993054;28;20046;-74
2023/12/09 11:47:57;;;;;;;978.10;894.57;;;6.80;99.90;;;;;;5010607;28;20482;-72
2023/12/09 11:50:22;;;;;;;950.72;878.90;;;6.70;99.90;;;;;;4993057;28;20042;-73
2023/12/09 11:52:49;;;;;;;962.83;891.63;;;6.70;99.90;;;;;;5010397;28;20038;-74
2023/12/09 11:55:19;;;;;;;983.22;907.08;;;6.80;99.90;;;;;;5023659;28;20033;-72
2023/12/09 11:57:45;;;;;;;980.92;902.42;;;6.80;99.90;;;;;;5009397;28;20073;-73
2023/12/09 12:00:11;;;;;;;991.57;914.73;;;6.80;99.90;;;;;;5008425;28;20073;-73
2023/12/09 12:02:42;;;;;;;998.13;917.47;;;6.80;99.90;;;;;;4988331;28;20061;-72
2023/12/09 12:05:11;;;;;;;960.60;888.45;;;6.80;99.90;;;;;;4994117;28;20126;-71
2023/12/09 12:07:37;;;;;;;928.03;859.20;;;6.80;99.90;;;;;;5008611;28;20126;-72
2023/12/09 12:10:05;;;;;;;950.00;880.13;;;6.80;99.90;;;;;;5007883;28;20121;-72
2023/12/09 12:12:31;;;;;;;998.08;915.05;;;6.80;99.90;;;;;;5010922;28;20092;-73